Time;durP1;ratioP1;P1;durP2;ratioP2;P2;SDS_P1;SDS_P2;PMS_P1;PMS_P2;Temp;Humidity;BMP_temperature;BMP_pressure;BME280_temperature;BME280_humidity;BME280_pressure;Samples;Min_cycle;Max_cycle;Signal;HPM_P1;HPM_P2
2022/08/14 00:01:58;;;;;;;2.10;2.00;;;29.20;52.60;;;;;;5011927;28;20817;-79
2022/08/14 00:04:30;;;;;;;2.43;2.33;;;29.10;52.70;;;;;;5008585;28;20917;-78
2022/08/14 00:07:11;;;;;;;2.27;2.07;;;29.10;52.70;;;;;;5029061;28;21017;-79
2022/08/14 00:09:43;;;;;;;2.53;2.40;;;29.10;52.70;;;;;;5025192;28;20763;-79
2022/08/14 00:12:33;;;;;;;2.90;2.73;;;29.10;52.70;;;;;;5021434;28;20495;-78
2022/08/14 00:15:23;;;;;;;2.27;2.07;;;29.10;52.70;;;;;;5023648;28;20458;-79
2022/08/14 00:17:52;;;;;;;2.63;2.53;;;29.10;52.70;;;;;;5022928;28;20519;-79
2022/08/14 00:20:23;;;;;;;2.50;2.40;;;29.10;52.70;;;;;;5014354;28;20491;-81
2022/08/14 00:22:57;;;;;;;2.33;2.23;;;29.10;52.70;;;;;;5014411;28;20444;-79
2022/08/14 00:25:42;;;;;;;2.80;2.70;;;29.10;52.70;;;;;;5029381;28;20934;-78
2022/08/14 00:28:25;;;;;;;2.43;2.33;;;29.10;52.70;;;;;;5014210;28;20463;-79
2022/08/14 00:30:59;;;;;;;2.87;2.73;;;29.10;52.70;;;;;;5024283;28;20448;-80
2022/08/14 00:33:31;;;;;;;2.30;2.20;;;29.10;52.70;;;;;;5028872;28;20472;-78
2022/08/14 00:36:20;;;;;;;3.13;2.93;;;29.10;52.70;;;;;;5012426;28;20937;-79
2022/08/14 00:39:11;;;;;;;2.13;2.03;;;29.00;52.80;;;;;;5011072;28;20474;-79
2022/08/14 00:41:40;;;;;;;2.87;2.70;;;29.00;52.80;;;;;;5013966;28;20470;-78
2022/08/14 00:44:09;;;;;;;2.60;2.50;;;29.00;52.80;;;;;;5002805;28;20507;-79
2022/08/14 00:46:39;;;;;;;2.17;2.07;;;29.00;52.80;;;;;;5017506;28;21009;-78
2022/08/14 00:49:10;;;;;;;2.60;2.50;;;29.00;52.80;;;;;;5017119;28;20456;-79
2022/08/14 00:51:42;;;;;;;2.50;2.40;;;29.00;52.80;;;;;;5021719;28;20929;-78
2022/08/14 00:54:13;;;;;;;2.53;2.43;;;29.00;52.80;;;;;;5020255;28;20480;-78
2022/08/14 00:56:52;;;;;;;2.30;2.20;;;29.00;52.80;;;;;;5015019;28;20538;-79
2022/08/14 00:59:24;;;;;;;2.70;2.60;;;29.00;52.80;;;;;;5022786;28;20497;-78
2022/08/14 01:01:56;;;;;;;2.93;2.83;;;29.00;52.80;;;;;;5021318;28;20874;-79
2022/08/14 01:04:27;;;;;;;3.20;3.00;;;29.00;52.80;;;;;;5022673;28;20454;-79
2022/08/14 01:07:19;;;;;;;3.07;2.87;;;29.00;52.90;;;;;;5009364;28;20460;-78
2022/08/14 01:09:50;;;;;;;2.70;2.60;;;29.00;52.90;;;;;;5018996;28;21002;-79
2022/08/14 01:12:21;;;;;;;3.20;3.00;;;29.00;52.90;;;;;;5015130;28;20478;-79
2022/08/14 01:14:57;;;;;;;2.87;2.77;;;29.00;52.90;;;;;;5008349;28;20561;-79
2022/08/14 01:21:02;;;;;;;2.80;2.70;;;28.90;52.90;;;;;;5006170;28;20797;-78
2022/08/14 01:23:12;;;;;;;2.60;2.50;;;28.90;52.90;;;;;;5019454;28;20985;-79
2022/08/14 01:25:46;;;;;;;2.87;2.67;;;28.90;52.90;;;;;;5014424;28;20979;-79
2022/08/14 01:28:15;;;;;;;2.73;2.53;;;28.90;53.00;;;;;;5006592;28;20968;-79
2022/08/14 01:31:07;;;;;;;3.00;2.80;;;28.90;53.00;;;;;;5008875;28;20479;-79
2022/08/14 01:33:39;;;;;;;2.70;2.60;;;28.90;53.00;;;;;;5016894;28;20972;-78
2022/08/14 01:36:35;;;;;;;2.70;2.60;;;28.90;53.00;;;;;;5002850;28;20678;-80
2022/08/14 01:39:08;;;;;;;2.77;2.63;;;28.90;53.00;;;;;;5010513;28;20567;-78
2022/08/14 01:41:42;;;;;;;2.50;2.30;;;28.90;53.00;;;;;;5000973;28;20456;-78
2022/08/14 01:44:14;;;;;;;3.37;3.17;;;28.90;53.00;;;;;;5008990;28;21213;-78
2022/08/14 01:47:02;;;;;;;3.13;2.93;;;28.90;53.00;;;;;;5007793;28;20435;-78
2022/08/14 01:49:33;;;;;;;2.97;2.83;;;28.90;53.00;;;;;;5012822;28;20951;-79
2022/08/14 01:52:21;;;;;;;3.03;2.83;;;28.90;53.00;;;;;;5011467;28;20462;-79
2022/08/14 01:55:12;;;;;;;2.90;2.70;;;28.80;53.10;;;;;;5028143;28;20451;-78
2022/08/14 01:57:44;;;;;;;2.67;2.50;;;28.80;53.10;;;;;;4998035;28;20556;-79
2022/08/14 02:00:29;;;;;;;2.90;2.70;;;28.80;53.20;;;;;;5018148;28;20441;-79
2022/08/14 02:03:03;;;;;;;2.70;2.60;;;28.80;53.20;;;;;;5026725;28;21019;-79
2022/08/14 02:05:35;;;;;;;3.33;3.13;;;28.80;53.20;;;;;;5030066;28;20935;-79
2022/08/14 02:08:06;;;;;;;2.77;2.63;;;28.80;53.20;;;;;;5017535;28;20956;-79
2022/08/14 02:10:39;;;;;;;3.27;3.07;;;28.80;53.20;;;;;;5019650;28;20954;-79
2022/08/14 02:13:17;;;;;;;3.10;2.90;;;28.80;53.30;;;;;;5020209;28;20461;-79
2022/08/14 02:15:46;;;;;;;2.80;2.60;;;28.80;53.30;;;;;;5014807;28;20457;-78
2022/08/14 02:18:16;;;;;;;3.30;3.20;;;28.80;53.30;;;;;;5019998;28;20474;-78
2022/08/14 02:20:46;;;;;;;3.20;3.00;;;28.70;53.30;;;;;;5012873;28;20477;-79
2022/08/14 02:23:15;;;;;;;2.83;2.73;;;28.80;53.30;;;;;;5027435;28;20460;-79
2022/08/14 02:26:05;;;;;;;3.40;3.20;;;28.80;53.30;;;;;;5024381;28;20441;-79
2022/08/14 02:28:58;;;;;;;3.60;3.27;;;28.80;53.30;;;;;;5015814;28;20461;-79
2022/08/14 02:31:32;;;;;;;2.93;2.73;;;28.80;53.30;;;;;;5017577;28;20536;-79
2022/08/14 02:34:17;;;;;;;3.10;3.00;;;28.70;53.30;;;;;;5015158;28;20455;-79
2022/08/14 02:36:54;;;;;;;2.80;2.60;;;28.70;53.30;;;;;;5006000;28;20441;-79
2022/08/14 02:39:36;;;;;;;2.90;2.70;;;28.70;53.30;;;;;;4985155;28;20475;-78
2022/08/14 02:42:07;;;;;;;2.90;2.70;;;28.70;53.30;;;;;;5016517;28;20931;-79
2022/08/14 02:44:43;;;;;;;3.10;2.90;;;28.70;53.40;;;;;;5019574;28;20939;-78
2022/08/14 02:47:17;;;;;;;2.60;2.40;;;28.70;53.40;;;;;;5007727;28;20459;-79
2022/08/14 02:49:49;;;;;;;2.73;2.63;;;28.70;53.40;;;;;;5026760;28;20531;-79
2022/08/14 02:52:24;;;;;;;2.80;2.70;;;28.70;53.40;;;;;;5005708;28;20462;-79
2022/08/14 02:55:13;;;;;;;2.93;2.80;;;28.70;53.40;;;;;;4987344;28;20549;-79
2022/08/14 02:57:51;;;;;;;2.83;2.70;;;28.70;53.40;;;;;;5015217;28;20979;-80
2022/08/14 03:00:25;;;;;;;3.10;3.00;;;28.70;53.40;;;;;;5027640;28;20973;-79
2022/08/14 03:02:54;;;;;;;3.33;3.13;;;28.70;53.40;;;;;;5024249;28;20461;-80
2022/08/14 03:05:29;;;;;;;3.20;3.00;;;28.60;53.40;;;;;;5027614;28;20442;-79
2022/08/14 03:08:08;;;;;;;3.27;3.07;;;28.60;53.40;;;;;;5037365;28;20447;-79
2022/08/14 03:10:38;;;;;;;2.80;2.70;;;28.60;53.40;;;;;;5023616;28;20546;-79
2022/08/14 03:13:18;;;;;;;2.87;2.67;;;28.60;53.40;;;;;;5031738;28;20453;-79
2022/08/14 03:15:51;;;;;;;2.70;2.60;;;28.60;53.40;;;;;;5030912;28;20460;-80
2022/08/14 03:18:25;;;;;;;3.20;3.00;;;28.60;53.40;;;;;;5029936;28;21008;-79
2022/08/14 03:21:07;;;;;;;2.83;2.73;;;28.60;53.40;;;;;;5019226;28;20540;-79
2022/08/14 03:23:35;;;;;;;3.20;3.00;;;28.60;53.50;;;;;;5037413;28;20440;-79
2022/08/14 03:26:07;;;;;;;3.33;3.03;;;28.60;53.50;;;;;;5031825;28;20529;-79
2022/08/14 03:28:39;;;;;;;3.40;3.20;;;28.60;53.50;;;;;;5027439;28;20476;-79
2022/08/14 03:31:10;;;;;;;3.20;3.00;;;28.60;53.50;;;;;;5031588;28;20444;-79
2022/08/14 03:33:41;;;;;;;3.47;3.27;;;28.60;53.50;;;;;;5043058;28;20475;-79
2022/08/14 03:36:13;;;;;;;3.40;3.20;;;28.60;53.50;;;;;;5030359;28;20553;-80
2022/08/14 03:39:04;;;;;;;3.07;2.80;;;28.50;53.50;;;;;;5029616;28;21086;-79
2022/08/14 03:41:43;;;;;;;4.23;3.33;;;28.60;53.50;;;;;;5037141;28;20455;-79
2022/08/14 03:44:13;;;;;;;3.13;2.93;;;28.60;53.50;;;;;;5043593;28;20451;-79
2022/08/14 03:47:01;;;;;;;3.10;2.90;;;28.60;53.50;;;;;;5020931;28;20533;-79
2022/08/14 03:49:30;;;;;;;3.13;3.03;;;28.50;53.50;;;;;;5037256;28;20514;-79
2022/08/14 03:52:03;;;;;;;3.20;3.00;;;28.50;53.50;;;;;;5025373;28;20452;-78
2022/08/14 03:54:51;;;;;;;3.20;3.00;;;28.50;53.50;;;;;;5032804;28;20466;-79
2022/08/14 03:57:20;;;;;;;3.87;3.67;;;28.50;53.50;;;;;;5034362;28;20519;-79
2022/08/14 03:59:52;;;;;;;3.40;3.10;;;28.50;53.50;;;;;;5040682;28;20541;-78
2022/08/14 04:02:22;;;;;;;3.87;3.67;;;28.50;53.60;;;;;;5035001;28;20872;-79
2022/08/14 04:05:01;;;;;;;4.17;3.87;;;28.50;53.60;;;;;;5044342;28;20449;-78
2022/08/14 04:07:40;;;;;;;3.20;3.10;;;28.50;53.60;;;;;;5043402;28;20468;-79
2022/08/14 04:10:28;;;;;;;3.20;3.00;;;28.50;53.60;;;;;;5009800;28;20462;-78
2022/08/14 04:13:00;;;;;;;3.10;3.00;;;28.50;53.60;;;;;;5029573;28;20459;-78
2022/08/14 04:15:33;;;;;;;3.53;3.33;;;28.50;53.60;;;;;;5035932;28;20556;-78
2022/08/14 04:18:21;;;;;;;3.40;3.20;;;28.50;53.60;;;;;;5010193;28;20456;-79
2022/08/14 04:20:49;;;;;;;3.47;3.27;;;28.50;53.60;;;;;;5044393;28;20570;-79
2022/08/14 04:23:22;;;;;;;3.30;3.10;;;28.50;53.60;;;;;;5034843;28;20454;-78
2022/08/14 04:25:59;;;;;;;3.10;3.00;;;28.40;53.60;;;;;;5046108;28;20451;-78
2022/08/14 04:28:27;;;;;;;3.60;3.40;;;28.40;53.60;;;;;;5025945;28;20455;-78
2022/08/14 04:31:18;;;;;;;4.20;3.90;;;28.40;53.60;;;;;;5014719;28;20456;-79
2022/08/14 04:34:07;;;;;;;3.40;3.20;;;28.40;53.60;;;;;;5046509;28;20949;-78
2022/08/14 04:44:59;;;;;;;3.10;3.00;;;28.40;53.60;;;;;;5039015;28;20451;-79
2022/08/14 04:50:21;;;;;;;3.27;3.07;;;28.40;53.60;;;;;;5023366;28;20941;-78
2022/08/14 04:53:11;;;;;;;3.47;3.30;;;28.40;53.60;;;;;;5038145;28;20555;-78
2022/08/14 04:55:41;;;;;;;3.60;3.40;;;28.40;53.60;;;;;;5029958;28;20497;-79
2022/08/14 04:58:10;;;;;;;3.00;2.90;;;28.40;53.60;;;;;;5040814;28;20504;-79
2022/08/14 05:00:50;;;;;;;3.37;3.17;;;28.40;53.60;;;;;;5028894;28;20473;-79
2022/08/14 05:03:22;;;;;;;3.40;3.20;;;28.40;53.60;;;;;;5030428;28;20465;-81
2022/08/14 05:05:55;;;;;;;3.50;3.30;;;28.30;53.60;;;;;;5027719;28;20952;-78
2022/08/14 05:08:24;;;;;;;3.73;3.53;;;28.40;53.60;;;;;;5022404;28;20833;-79
2022/08/14 05:11:13;;;;;;;2.97;2.87;;;28.40;53.60;;;;;;5016496;28;20458;-78
2022/08/14 05:13:43;;;;;;;3.67;3.47;;;28.40;53.60;;;;;;5028146;28;20835;-79
2022/08/14 05:16:31;;;;;;;3.90;3.60;;;28.40;53.60;;;;;;5011858;28;20482;-78
2022/08/14 05:19:03;;;;;;;3.43;3.27;;;28.30;53.60;;;;;;5034252;28;20455;-79
2022/08/14 05:21:52;;;;;;;3.50;3.30;;;28.40;53.60;;;;;;5030692;28;20585;-79
2022/08/14 05:24:27;;;;;;;3.30;3.10;;;28.40;53.60;;;;;;5025424;28;20452;-78
2022/08/14 05:26:56;;;;;;;3.23;3.03;;;28.40;53.60;;;;;;5030031;28;20471;-78
2022/08/14 05:29:27;;;;;;;3.40;3.20;;;28.30;53.60;;;;;;5034277;28;20451;-79
2022/08/14 05:31:56;;;;;;;2.93;2.77;;;28.30;53.60;;;;;;5039295;28;20463;-78
2022/08/14 05:34:28;;;;;;;3.30;3.20;;;28.30;53.60;;;;;;5029594;28;20540;-79
2022/08/14 05:37:00;;;;;;;3.33;3.13;;;28.30;53.60;;;;;;5043558;28;20802;-78
2022/08/14 05:39:30;;;;;;;3.33;3.23;;;28.40;53.60;;;;;;5043004;28;20938;-79
2022/08/14 05:41:59;;;;;;;3.53;3.27;;;28.40;53.60;;;;;;5032638;28;20473;-78
2022/08/14 05:44:36;;;;;;;3.60;3.40;;;28.40;53.60;;;;;;5033156;28;20467;-79
2022/08/14 05:47:05;;;;;;;3.70;3.50;;;28.40;53.60;;;;;;5020787;28;20509;-81
2022/08/14 05:49:36;;;;;;;2.87;2.77;;;28.30;53.60;;;;;;5032985;28;20459;-79
2022/08/14 05:52:06;;;;;;;3.43;3.23;;;28.40;53.60;;;;;;5034723;28;20450;-78
2022/08/14 05:54:37;;;;;;;3.37;3.17;;;28.40;53.60;;;;;;5038569;28;20529;-78
2022/08/14 05:57:05;;;;;;;3.10;3.00;;;28.40;53.60;;;;;;5034832;28;20495;-78
2022/08/14 05:59:34;;;;;;;3.40;3.20;;;28.40;53.60;;;;;;5034504;28;20595;-78
2022/08/14 06:02:07;;;;;;;3.60;3.30;;;28.40;53.60;;;;;;5031521;28;20483;-80
2022/08/14 06:04:38;;;;;;;3.30;3.10;;;28.40;53.50;;;;;;5030976;28;20943;-80
2022/08/14 06:07:07;;;;;;;3.33;3.13;;;28.40;53.60;;;;;;5040685;28;20447;-79
2022/08/14 06:09:36;;;;;;;3.50;3.30;;;28.40;53.60;;;;;;5035955;28;20457;-79
2022/08/14 06:12:08;;;;;;;2.93;2.83;;;28.40;53.50;;;;;;5036707;28;20454;-79
2022/08/14 06:14:37;;;;;;;3.10;3.00;;;28.40;53.50;;;;;;5019002;28;21051;-78
2022/08/14 06:17:08;;;;;;;3.20;3.00;;;28.40;53.50;;;;;;5031958;28;20507;-80
2022/08/14 06:19:44;;;;;;;3.03;2.93;;;28.40;53.50;;;;;;5033640;28;20460;-79
2022/08/14 06:22:14;;;;;;;3.43;3.23;;;28.40;53.50;;;;;;5029447;28;20483;-79
2022/08/14 06:24:44;;;;;;;4.00;3.77;;;28.40;53.50;;;;;;5024638;28;20452;-79
2022/08/14 06:27:12;;;;;;;3.77;3.57;;;28.50;53.50;;;;;;5026625;28;20943;-78
2022/08/14 06:29:43;;;;;;;3.80;3.50;;;28.50;53.50;;;;;;5021824;28;20455;-78
2022/08/14 06:32:12;;;;;;;4.00;3.77;;;28.50;53.40;;;;;;5040436;28;20498;-79
2022/08/14 06:35:02;;;;;;;3.73;3.53;;;28.50;53.40;;;;;;5047024;28;20869;-79
2022/08/14 06:37:42;;;;;;;3.30;3.10;;;28.50;53.40;;;;;;5025048;28;20457;-80
2022/08/14 06:40:12;;;;;;;3.60;3.40;;;28.50;53.40;;;;;;5036832;28;20454;-78
2022/08/14 06:42:55;;;;;;;3.30;3.10;;;28.50;53.40;;;;;;5033200;28;20447;-79
2022/08/14 06:45:28;;;;;;;2.73;2.60;;;28.50;53.40;;;;;;5040540;28;20926;-79
2022/08/14 06:47:57;;;;;;;3.70;3.50;;;28.50;53.40;;;;;;5043669;28;20452;-79
2022/08/14 06:50:30;;;;;;;3.10;3.00;;;28.50;53.40;;;;;;5040635;28;20456;-80
2022/08/14 06:53:00;;;;;;;3.87;3.57;;;28.50;53.40;;;;;;5036220;28;20443;-78
2022/08/14 06:55:29;;;;;;;4.00;3.23;;;28.50;53.40;;;;;;5040073;28;20609;-78
2022/08/14 06:57:57;;;;;;;3.30;3.10;;;28.50;53.40;;;;;;5019590;28;20530;-79
2022/08/14 07:00:29;;;;;;;3.70;3.50;;;28.50;53.40;;;;;;5039427;28;20473;-79
2022/08/14 07:05:48;;;;;;;2.77;2.67;;;28.50;53.40;;;;;;5045091;28;20444;-81
2022/08/14 07:08:28;;;;;;;3.10;3.00;;;28.50;53.40;;;;;;5041325;28;20522;-79
2022/08/14 07:11:02;;;;;;;3.00;2.90;;;28.50;53.40;;;;;;5020635;28;20511;-79
2022/08/14 07:13:32;;;;;;;3.57;3.37;;;28.50;53.40;;;;;;5046679;28;20448;-78
2022/08/14 07:16:01;;;;;;;3.50;3.30;;;28.50;53.30;;;;;;5043048;28;21107;-78
2022/08/14 07:18:34;;;;;;;3.70;3.50;;;28.60;53.30;;;;;;5031215;28;20506;-78
2022/08/14 07:21:07;;;;;;;3.23;3.03;;;28.50;53.30;;;;;;5039918;28;20472;-78
2022/08/14 07:23:36;;;;;;;3.70;3.50;;;28.60;53.40;;;;;;5037480;28;20447;-78
2022/08/14 07:26:12;;;;;;;3.00;2.80;;;28.60;53.40;;;;;;5024523;28;20551;-79
2022/08/14 07:28:42;;;;;;;3.20;3.00;;;28.60;53.30;;;;;;5031549;28;20467;-79
2022/08/14 07:31:12;;;;;;;3.30;3.13;;;28.60;53.40;;;;;;5023449;28;20464;-80
2022/08/14 07:33:45;;;;;;;3.80;3.50;;;28.60;53.40;;;;;;5024676;28;20449;-78
2022/08/14 07:36:22;;;;;;;2.80;2.70;;;28.60;53.40;;;;;;5026216;28;20451;-79
2022/08/14 07:38:58;;;;;;;2.87;2.77;;;28.60;53.40;;;;;;5027159;28;20459;-78
2022/08/14 07:41:28;;;;;;;3.47;3.27;;;28.60;53.30;;;;;;5030871;28;20522;-78
2022/08/14 07:44:01;;;;;;;3.70;3.50;;;28.60;53.40;;;;;;5030502;28;21149;-79
2022/08/14 07:46:50;;;;;;;3.57;3.37;;;28.60;53.30;;;;;;5021826;28;20459;-78
2022/08/14 07:49:19;;;;;;;3.20;3.00;;;28.60;53.30;;;;;;5041000;28;20461;-78
2022/08/14 07:51:48;;;;;;;2.83;2.73;;;28.60;53.30;;;;;;5041738;28;20501;-79
2022/08/14 07:54:19;;;;;;;3.63;3.43;;;28.60;53.40;;;;;;5041961;28;20540;-79
2022/08/14 07:56:57;;;;;;;3.10;2.93;;;28.60;53.30;;;;;;5030276;28;20896;-78
2022/08/14 07:59:27;;;;;;;3.10;3.00;;;28.60;53.30;;;;;;5030139;28;20883;-78
2022/08/14 08:02:11;;;;;;;3.30;3.10;;;28.60;53.30;;;;;;5019005;28;20564;-78
2022/08/14 08:04:49;;;;;;;3.70;3.50;;;28.60;53.30;;;;;;5036918;28;20447;-78
2022/08/14 08:07:22;;;;;;;3.07;2.97;;;28.60;53.30;;;;;;5026250;28;20447;-78
2022/08/14 08:09:57;;;;;;;3.50;3.30;;;28.60;53.30;;;;;;5032326;28;20546;-78
2022/08/14 08:12:28;;;;;;;3.30;3.10;;;28.60;53.30;;;;;;5031351;28;20562;-78
2022/08/14 08:15:01;;;;;;;3.17;3.00;;;28.60;53.30;;;;;;5031327;28;20460;-78
2022/08/14 08:17:38;;;;;;;3.03;2.93;;;28.60;53.30;;;;;;5032868;28;20485;-78
2022/08/14 08:20:23;;;;;;;3.60;3.30;;;28.60;53.30;;;;;;5029882;28;20444;-78
2022/08/14 08:22:57;;;;;;;3.40;3.20;;;28.60;53.30;;;;;;5030517;28;20499;-78
2022/08/14 08:25:34;;;;;;;3.03;2.83;;;28.60;53.30;;;;;;5029049;28;20448;-78
2022/08/14 08:28:10;;;;;;;3.40;3.20;;;28.60;53.30;;;;;;5041268;28;20514;-78
2022/08/14 08:30:55;;;;;;;3.10;3.00;;;28.60;53.30;;;;;;5030592;28;20464;-77
2022/08/14 08:33:26;;;;;;;3.30;3.10;;;28.60;53.30;;;;;;5026514;28;20451;-79
2022/08/14 08:36:02;;;;;;;2.90;2.80;;;28.60;53.30;;;;;;5033748;28;20461;-78
2022/08/14 08:38:36;;;;;;;2.63;2.53;;;28.70;53.30;;;;;;5036781;28;20523;-78
2022/08/14 08:41:24;;;;;;;3.07;2.97;;;28.70;53.30;;;;;;5028575;28;20453;-77
2022/08/14 08:44:03;;;;;;;3.30;3.10;;;28.70;53.30;;;;;;5035529;28;20475;-78
2022/08/14 08:46:33;;;;;;;3.60;3.40;;;28.70;53.30;;;;;;5039999;28;20487;-79
2022/08/14 08:49:03;;;;;;;3.40;3.20;;;28.70;53.30;;;;;;5028310;28;20540;-78
2022/08/14 08:51:37;;;;;;;3.27;3.07;;;28.70;53.30;;;;;;5033571;28;20506;-78
2022/08/14 08:54:13;;;;;;;3.23;3.03;;;28.70;53.30;;;;;;5029280;28;20462;-78
2022/08/14 08:56:48;;;;;;;3.40;3.20;;;28.70;53.30;;;;;;5020519;28;20513;-77
2022/08/14 08:59:20;;;;;;;3.70;3.40;;;28.70;53.30;;;;;;5036486;28;20514;-78
2022/08/14 09:01:56;;;;;;;3.20;3.00;;;28.70;53.30;;;;;;5038230;28;20525;-78
2022/08/14 09:04:26;;;;;;;3.20;3.00;;;28.70;53.30;;;;;;5028486;28;20994;-78
2022/08/14 09:06:55;;;;;;;2.80;2.70;;;28.70;53.30;;;;;;5030936;28;20485;-78
2022/08/14 09:09:50;;;;;;;2.80;2.70;;;28.70;53.30;;;;;;5038112;28;20854;-79
2022/08/14 09:12:27;;;;;;;2.80;2.70;;;28.70;53.30;;;;;;5020906;28;20459;-78
2022/08/14 09:15:01;;;;;;;3.10;3.00;;;28.70;53.30;;;;;;5030762;28;20455;-79
2022/08/14 09:17:29;;;;;;;3.30;3.10;;;28.70;53.30;;;;;;5042686;28;20628;-78
2022/08/14 09:19:59;;;;;;;3.20;3.00;;;28.70;53.30;;;;;;5047831;28;20966;-78
2022/08/14 09:22:31;;;;;;;2.80;2.70;;;28.70;53.30;;;;;;5030525;28;20482;-79
2022/08/14 09:25:07;;;;;;;3.13;2.93;;;28.70;53.30;;;;;;5030096;28;20453;-78
2022/08/14 09:27:37;;;;;;;3.00;2.90;;;28.70;53.30;;;;;;5017736;28;20464;-80
2022/08/14 09:30:09;;;;;;;2.67;2.57;;;28.70;53.20;;;;;;5024905;28;20441;-78
2022/08/14 09:33:11;;;;;;;3.30;3.10;;;28.70;53.30;;;;;;5033898;28;20864;-78
2022/08/14 09:36:00;;;;;;;2.93;2.83;;;28.70;53.20;;;;;;5041231;28;20456;-78
2022/08/14 09:38:44;;;;;;;3.13;2.97;;;28.70;53.30;;;;;;5035797;28;20444;-78
2022/08/14 09:41:31;;;;;;;2.70;2.60;;;28.80;53.20;;;;;;5044576;28;20453;-79
2022/08/14 09:44:32;;;;;;;3.03;2.87;;;28.70;53.20;;;;;;5048463;28;20567;-78
2022/08/14 09:47:01;;;;;;;3.23;3.03;;;28.80;53.20;;;;;;5034963;28;20936;-80
2022/08/14 09:49:33;;;;;;;3.70;3.50;;;28.80;53.20;;;;;;5041883;28;20459;-78
2022/08/14 09:52:11;;;;;;;2.57;2.47;;;28.80;53.30;;;;;;5029745;28;20942;-78
2022/08/14 09:54:59;;;;;;;3.50;3.30;;;28.80;53.20;;;;;;5027959;28;20930;-78
2022/08/14 09:57:30;;;;;;;2.63;2.53;;;28.80;53.20;;;;;;5031700;28;20455;-78
2022/08/14 10:00:10;;;;;;;2.97;2.77;;;28.80;53.20;;;;;;5033003;28;20455;-78
2022/08/14 10:03:01;;;;;;;3.13;2.93;;;28.80;53.20;;;;;;5040066;28;20579;-79
2022/08/14 10:05:34;;;;;;;2.90;2.80;;;28.80;53.20;;;;;;5022263;28;20838;-78
2022/08/14 10:08:18;;;;;;;3.93;3.73;;;28.80;53.20;;;;;;5033759;28;20444;-78
2022/08/14 10:10:53;;;;;;;3.10;3.00;;;28.80;53.20;;;;;;5038658;28;20929;-78
2022/08/14 10:13:31;;;;;;;3.20;3.10;;;28.80;53.20;;;;;;5032560;28;20550;-77
2022/08/14 10:16:22;;;;;;;2.60;2.40;;;28.80;53.20;;;;;;5041342;28;20911;-78
2022/08/14 10:19:06;;;;;;;3.20;3.00;;;28.80;53.20;;;;;;5027244;28;20494;-78
2022/08/14 10:21:38;;;;;;;2.47;2.37;;;28.80;53.20;;;;;;5024306;28;20482;-78
2022/08/14 10:24:29;;;;;;;3.23;3.03;;;28.80;53.10;;;;;;5034684;28;20467;-78
2022/08/14 10:27:15;;;;;;;2.80;2.70;;;28.80;53.10;;;;;;5029791;28;21067;-78
2022/08/14 10:29:52;;;;;;;2.67;2.57;;;28.80;53.20;;;;;;5039242;28;20477;-78
2022/08/14 10:32:22;;;;;;;2.80;2.70;;;28.90;53.10;;;;;;5033400;28;20442;-78
2022/08/14 10:35:06;;;;;;;2.63;2.53;;;28.90;53.10;;;;;;5020759;28;20453;-78
2022/08/14 10:37:48;;;;;;;2.67;2.57;;;28.90;53.10;;;;;;5032860;28;20925;-78
2022/08/14 10:40:26;;;;;;;3.33;3.13;;;28.90;53.10;;;;;;5025434;28;20999;-78
2022/08/14 10:43:18;;;;;;;3.10;2.97;;;28.90;53.10;;;;;;5038995;28;20578;-77
2022/08/14 10:45:57;;;;;;;2.27;2.17;;;28.90;53.10;;;;;;5030622;28;20489;-78
2022/08/14 10:48:56;;;;;;;2.70;2.60;;;28.90;53.10;;;;;;5021877;28;20458;-77
2022/08/14 10:51:26;;;;;;;2.77;2.67;;;28.90;53.20;;;;;;5026674;28;20472;-77
2022/08/14 10:54:00;;;;;;;2.87;2.77;;;28.90;53.10;;;;;;5044822;28;20452;-78
2022/08/14 10:56:44;;;;;;;3.10;2.90;;;28.90;53.10;;;;;;5025660;28;20549;-78
2022/08/14 10:59:13;;;;;;;2.90;2.80;;;28.90;53.10;;;;;;5024015;28;20496;-78
2022/08/14 11:01:43;;;;;;;3.03;2.93;;;28.90;53.20;;;;;;5027663;28;20464;-78
2022/08/14 11:04:27;;;;;;;3.30;3.10;;;28.90;53.20;;;;;;5031137;28;21059;-77
2022/08/14 11:06:58;;;;;;;3.07;2.97;;;28.90;53.20;;;;;;5040009;28;20836;-77
2022/08/14 11:09:26;;;;;;;3.10;2.93;;;29.00;53.10;;;;;;5033132;28;20454;-78
2022/08/14 11:12:00;;;;;;;2.23;2.13;;;28.90;53.10;;;;;;5020811;28;20463;-78
2022/08/14 11:14:54;;;;;;;2.90;2.80;;;29.00;53.10;;;;;;5027711;28;20464;-78
2022/08/14 11:17:31;;;;;;;2.70;2.60;;;29.00;53.10;;;;;;5040445;28;20528;-78
2022/08/14 11:20:06;;;;;;;3.20;3.00;;;29.00;53.10;;;;;;5023527;28;20463;-77
2022/08/14 11:22:43;;;;;;;2.57;2.47;;;29.00;53.10;;;;;;5037049;28;20455;-79
2022/08/14 11:25:28;;;;;;;2.77;2.67;;;29.00;53.10;;;;;;5034985;28;20457;-77
2022/08/14 11:28:13;;;;;;;3.40;3.20;;;29.00;53.10;;;;;;5041941;28;20521;-78
2022/08/14 11:30:49;;;;;;;3.00;2.90;;;29.00;53.00;;;;;;5027070;28;20451;-79
2022/08/14 11:33:29;;;;;;;2.53;2.43;;;29.10;53.00;;;;;;5042632;28;20442;-78
2022/08/14 11:35:59;;;;;;;2.93;2.83;;;29.10;53.00;;;;;;5038284;28;20484;-78
2022/08/14 11:38:35;;;;;;;2.77;2.57;;;29.10;53.00;;;;;;5030003;28;20452;-78
2022/08/14 11:41:08;;;;;;;3.30;3.13;;;29.10;52.90;;;;;;5031712;28;20857;-77
2022/08/14 11:43:40;;;;;;;2.20;2.10;;;29.10;52.90;;;;;;5024101;28;20810;-77
2022/08/14 11:46:23;;;;;;;2.80;2.63;;;29.10;52.90;;;;;;5036406;28;20451;-77
2022/08/14 11:49:06;;;;;;;2.90;2.70;;;29.10;52.90;;;;;;5023731;28;20516;-77
2022/08/14 11:51:35;;;;;;;3.30;3.10;;;29.10;52.90;;;;;;5031864;28;20524;-77
2022/08/14 11:54:21;;;;;;;2.40;2.30;;;29.10;52.90;;;;;;5035185;28;20454;-78
2022/08/14 11:57:02;;;;;;;2.40;2.30;;;29.10;52.90;;;;;;5025811;28;21026;-77
2022/08/14 11:59:32;;;;;;;2.60;2.50;;;29.10;52.80;;;;;;5019944;28;20587;-78
2022/08/14 12:02:09;;;;;;;2.67;2.57;;;29.10;52.80;;;;;;5033575;28;21009;-79
2022/08/14 12:04:59;;;;;;;2.33;2.23;;;29.10;52.80;;;;;;5021143;28;20488;-79
2022/08/14 12:07:31;;;;;;;2.70;2.60;;;29.10;52.90;;;;;;5035636;28;20484;-77
2022/08/14 12:10:01;;;;;;;3.10;3.00;;;29.10;52.80;;;;;;5034390;28;20437;-78
2022/08/14 12:12:55;;;;;;;2.80;2.70;;;29.10;52.90;;;;;;5032209;28;20463;-78
2022/08/14 12:15:32;;;;;;;2.43;2.33;;;29.10;52.80;;;;;;5034414;28;20459;-77
2022/08/14 12:18:03;;;;;;;2.70;2.60;;;29.10;52.80;;;;;;5017304;28;20507;-77
2022/08/14 12:20:41;;;;;;;2.70;2.60;;;29.20;52.70;;;;;;5020662;28;21024;-78
2022/08/14 12:23:23;;;;;;;2.70;2.60;;;29.20;52.80;;;;;;5020856;28;20463;-77
2022/08/14 12:26:04;;;;;;;2.50;2.40;;;29.20;52.70;;;;;;5021565;28;20966;-78
2022/08/14 12:29:06;;;;;;;2.40;2.30;;;29.20;52.70;;;;;;5029402;28;20460;-77
2022/08/14 12:31:35;;;;;;;2.83;2.73;;;29.10;52.80;;;;;;5019510;28;20447;-78
2022/08/14 12:34:14;;;;;;;2.70;2.60;;;29.20;52.80;;;;;;5019477;28;20460;-81
2022/08/14 12:36:49;;;;;;;2.47;2.37;;;29.20;52.70;;;;;;5034767;28;20454;-78
2022/08/14 12:39:19;;;;;;;2.43;2.33;;;29.20;52.70;;;;;;5016789;28;20465;-78
2022/08/14 12:41:54;;;;;;;2.43;2.33;;;29.20;52.70;;;;;;5038198;28;20464;-78
2022/08/14 12:44:29;;;;;;;3.03;2.90;;;29.20;52.60;;;;;;5033910;28;20477;-78
2022/08/14 12:47:08;;;;;;;2.70;2.60;;;29.20;52.80;;;;;;5035056;28;20446;-78
2022/08/14 12:49:53;;;;;;;2.83;2.70;;;29.10;52.80;;;;;;5038871;28;20452;-77
2022/08/14 12:52:31;;;;;;;2.60;2.50;;;29.10;52.80;;;;;;5038893;28;20459;-77
2022/08/14 12:55:20;;;;;;;2.53;2.43;;;29.10;52.80;;;;;;5033016;28;20485;-78
2022/08/14 12:57:52;;;;;;;2.90;2.70;;;29.10;52.80;;;;;;5040041;28;20525;-78
2022/08/14 13:00:22;;;;;;;2.57;2.47;;;29.10;52.80;;;;;;5030880;28;20439;-78
2022/08/14 13:02:54;;;;;;;2.87;2.67;;;29.10;52.80;;;;;;5018816;28;20449;-78
2022/08/14 13:05:25;;;;;;;2.53;2.33;;;29.10;52.80;;;;;;5031351;28;20468;-78
2022/08/14 13:07:57;;;;;;;3.17;2.97;;;29.10;52.80;;;;;;5037424;28;20547;-78
2022/08/14 13:10:27;;;;;;;3.10;2.90;;;29.20;52.80;;;;;;5025611;28;20923;-78
2022/08/14 13:13:16;;;;;;;2.80;2.70;;;29.20;52.80;;;;;;5025996;28;20465;-77
2022/08/14 13:15:51;;;;;;;2.80;2.70;;;29.20;52.70;;;;;;5030427;28;20452;-78
2022/08/14 13:18:26;;;;;;;2.87;2.77;;;29.20;52.70;;;;;;5031418;28;20467;-78
2022/08/14 13:20:57;;;;;;;2.97;2.77;;;29.20;52.70;;;;;;5031093;28;20434;-78
2022/08/14 13:23:33;;;;;;;2.40;2.30;;;29.20;52.70;;;;;;5031242;28;20857;-78
2022/08/14 13:26:07;;;;;;;2.90;2.80;;;29.30;52.60;;;;;;5030720;28;20489;-78
2022/08/14 13:28:41;;;;;;;3.03;2.83;;;29.30;52.70;;;;;;5031278;28;20793;-78
2022/08/14 13:31:33;;;;;;;2.07;1.97;;;29.30;52.70;;;;;;5030622;28;20866;-78
2022/08/14 13:34:02;;;;;;;3.00;2.90;;;29.30;52.60;;;;;;5030696;28;20785;-78
2022/08/14 13:36:32;;;;;;;2.70;2.60;;;29.30;52.60;;;;;;5031476;28;20529;-77
2022/08/14 13:39:23;;;;;;;2.30;2.20;;;29.30;52.70;;;;;;5031082;28;20529;-77
2022/08/14 13:41:51;;;;;;;2.37;2.27;;;29.30;52.60;;;;;;5026505;28;20449;-77
2022/08/14 13:44:27;;;;;;;2.47;2.37;;;29.30;52.60;;;;;;5030819;28;20525;-78
2022/08/14 13:46:57;;;;;;;2.67;2.57;;;29.30;52.60;;;;;;5031189;28;20970;-78
2022/08/14 13:49:25;;;;;;;2.53;2.43;;;29.30;52.60;;;;;;5032776;28;20533;-77
2022/08/14 13:51:58;;;;;;;2.30;2.20;;;29.30;52.60;;;;;;5035041;28;20456;-77